createdAt,value
2023-04-22T00:00:06.756Z,86.20
2023-04-22T00:00:38.685Z,85.30
2023-04-22T00:01:10.723Z,85.20
2023-04-22T00:01:42.649Z,87.20
2023-04-22T00:02:17.113Z,87.00
2023-04-22T00:02:49.484Z,85.30
2023-04-22T00:03:25.262Z,85.40
2023-04-22T00:03:57.775Z,85.40
2023-04-22T00:04:30.065Z,85.70
2023-04-22T00:05:02.652Z,85.80
2023-04-22T00:05:35.002Z,85.60
2023-04-22T00:06:39.534Z,85.00
2023-04-22T00:07:12.642Z,85.60
2023-04-22T00:07:44.808Z,85.50
2023-04-22T00:08:16.849Z,87.20
2023-04-22T00:08:48.884Z,87.70
2023-04-22T00:09:21.060Z,85.60
2023-04-22T00:09:53.200Z,85.10
2023-04-22T00:10:25.487Z,85.50
2023-04-22T00:10:57.420Z,85.60
2023-04-22T00:11:29.449Z,86.90
2023-04-22T00:12:02.592Z,85.60
2023-04-22T00:12:34.850Z,85.60
2023-04-22T00:13:06.890Z,85.60
2023-04-22T00:13:38.941Z,86.80
2023-04-22T00:14:11.092Z,87.50
2023-04-22T00:14:43.126Z,85.60
2023-04-22T00:15:15.063Z,85.90
2023-04-22T00:15:47.141Z,85.70
2023-04-22T00:16:19.533Z,85.00
2023-04-22T00:16:51.528Z,86.70
2023-04-22T00:17:23.730Z,87.30
2023-04-22T00:17:55.646Z,85.00
2023-04-22T00:18:27.561Z,86.20
2023-04-22T00:18:59.573Z,87.50
2023-04-22T00:19:31.488Z,85.00
2023-04-22T00:20:04.502Z,87.90
2023-04-22T00:20:36.538Z,85.60
2023-04-22T00:21:08.702Z,87.30
2023-04-22T00:21:40.728Z,87.00
2023-04-22T00:22:12.769Z,86.00
2023-04-22T00:22:44.933Z,85.80
2023-04-22T00:23:17.116Z,85.70
2023-04-22T00:23:49.018Z,85.70
2023-04-22T00:24:21.053Z,85.60
2023-04-22T00:24:53.094Z,87.70
2023-04-22T00:25:25.010Z,85.20
2023-04-22T00:25:57.054Z,85.00
2023-04-22T00:26:28.976Z,85.10
2023-04-22T00:27:01.137Z,86.30
2023-04-22T00:27:33.059Z,85.10
2023-04-22T00:28:05.693Z,85.60
2023-04-22T00:28:37.741Z,85.20
2023-04-22T00:29:09.774Z,85.00
2023-04-22T00:29:41.815Z,87.40
2023-04-22T00:30:13.969Z,85.10
2023-04-22T00:30:46.280Z,85.00
2023-04-22T00:31:18.316Z,85.10
2023-04-22T00:31:50.374Z,85.10
2023-04-22T00:32:22.718Z,85.10
2023-04-22T00:32:55.465Z,87.60
2023-04-22T00:33:27.535Z,84.90
2023-04-22T00:33:59.936Z,85.00
2023-04-22T00:34:31.972Z,85.00
2023-04-22T00:35:04.493Z,85.00
2023-04-22T00:35:36.534Z,84.90
2023-04-22T00:36:09.063Z,85.00
2023-04-22T00:36:41.092Z,84.90
2023-04-22T00:37:13.144Z,85.00
2023-04-22T00:37:46.259Z,85.30
2023-04-22T00:38:18.302Z,85.20
2023-04-22T00:38:53.691Z,85.10
2023-04-22T00:39:25.744Z,85.50
2023-04-22T00:39:58.145Z,85.30
2023-04-22T00:40:30.182Z,85.40
2023-04-22T00:41:03.196Z,85.10
2023-04-22T00:41:35.699Z,85.10
2023-04-22T00:42:08.043Z,86.60
2023-04-22T00:42:41.823Z,85.20
2023-04-22T00:43:16.392Z,85.80
2023-04-22T00:43:48.299Z,87.40
2023-04-22T00:44:21.179Z,85.30
2023-04-22T00:44:53.339Z,84.00
2023-04-22T00:45:26.826Z,85.30
2023-04-22T00:45:59.249Z,87.90
2023-04-22T00:46:34.054Z,86.80
2023-04-22T00:47:06.264Z,86.10
2023-04-22T00:47:38.842Z,85.30
2023-04-22T00:48:11.832Z,85.10
2023-04-22T00:48:45.179Z,86.50
2023-04-22T00:49:17.223Z,85.00
2023-04-22T00:49:50.238Z,85.10
2023-04-22T00:50:22.385Z,85.20
2023-04-22T00:50:54.423Z,85.10
2023-04-22T00:51:26.470Z,85.10
2023-04-22T00:51:58.516Z,85.70
2023-04-22T00:52:30.553Z,85.00
2023-04-22T00:53:02.465Z,85.60
2023-04-22T00:53:34.384Z,85.90
2023-04-22T00:54:06.867Z,85.70
2023-04-22T00:54:38.824Z,88.10
2023-04-22T00:55:11.751Z,85.90
2023-04-22T00:55:43.869Z,85.70
2023-04-22T00:56:16.144Z,86.40
2023-04-22T00:56:48.423Z,85.60
2023-04-22T00:57:20.837Z,85.80
2023-04-22T00:57:54.783Z,85.80
2023-04-22T00:58:29.947Z,85.90
2023-04-22T00:59:02.595Z,85.20
2023-04-22T00:59:34.864Z,86.00
2023-04-22T01:00:09.834Z,86.00
2023-04-22T01:00:41.903Z,85.70
2023-04-22T01:01:14.309Z,87.80
2023-04-22T01:01:47.286Z,85.80
2023-04-22T01:02:19.482Z,86.10
2023-04-22T01:02:51.706Z,87.40
2023-04-22T01:03:24.486Z,86.50
2023-04-22T01:03:57.747Z,85.80
2023-04-22T01:04:30.801Z,85.60
2023-04-22T01:05:04.064Z,83.70
2023-04-22T01:05:36.198Z,85.80
2023-04-22T01:06:08.377Z,85.90
2023-04-22T01:06:41.237Z,86.40
2023-04-22T01:07:13.277Z,85.50
2023-04-22T01:07:45.553Z,87.80
2023-04-22T01:08:17.950Z,87.80
2023-04-22T01:08:50.244Z,85.70
2023-04-22T01:09:22.159Z,85.60
2023-04-22T01:09:54.199Z,86.10
2023-04-22T01:10:26.358Z,88.00
2023-04-22T01:10:58.513Z,88.00
2023-04-22T01:11:30.565Z,85.80
2023-04-22T01:12:02.834Z,85.70
2023-04-22T01:12:34.894Z,85.70
2023-04-22T01:13:07.516Z,88.70
2023-04-22T01:13:39.678Z,88.40
2023-04-22T01:14:11.722Z,85.80
2023-04-22T01:14:44.006Z,85.30
2023-04-22T01:15:16.038Z,85.70
2023-04-22T01:15:48.564Z,87.00
2023-04-22T01:16:22.070Z,85.70
2023-04-22T01:16:56.530Z,85.60
2023-04-22T01:17:29.494Z,85.10
2023-04-22T01:18:02.445Z,85.70
2023-04-22T01:18:35.839Z,85.10
2023-04-22T01:19:08.722Z,85.50
2023-04-22T01:19:41.828Z,86.00
2023-04-22T01:20:14.599Z,88.20
2023-04-22T01:20:46.641Z,87.10
2023-04-22T01:21:19.527Z,86.90
2023-04-22T01:21:53.132Z,85.60
2023-04-22T01:22:29.838Z,85.60
2023-04-22T01:23:06.446Z,85.80
2023-04-22T01:23:38.610Z,85.60
2023-04-22T01:24:11.003Z,87.50
2023-04-22T01:24:43.283Z,85.80
2023-04-22T01:25:15.447Z,85.20
2023-04-22T01:25:48.561Z,88.40
2023-04-22T01:26:20.858Z,87.70
2023-04-22T01:26:53.004Z,85.90
2023-04-22T01:27:25.652Z,85.80
2023-04-22T01:27:58.523Z,86.90
2023-04-22T01:28:31.647Z,85.80
2023-04-22T01:29:05.297Z,85.80
2023-04-22T01:29:38.861Z,85.90
2023-04-22T01:30:11.625Z,85.40
2023-04-22T01:30:44.978Z,85.90
2023-04-22T01:31:17.387Z,86.20
2023-04-22T01:31:50.048Z,86.00
2023-04-22T01:32:22.949Z,85.90
2023-04-22T01:32:55.195Z,86.00
2023-04-22T01:33:27.449Z,86.60
2023-04-22T01:33:59.850Z,86.10
2023-04-22T01:34:32.491Z,86.00
2023-04-22T01:35:05.009Z,86.90
2023-04-22T01:35:37.895Z,86.00
2023-04-22T01:36:12.889Z,88.20
2023-04-22T01:36:45.451Z,86.10
2023-04-22T01:37:18.823Z,86.20
2023-04-22T01:37:51.694Z,86.50
2023-04-22T01:38:23.740Z,86.20
2023-04-22T01:38:56.249Z,86.20
2023-04-22T01:39:29.132Z,86.30
2023-04-22T01:40:04.651Z,87.30
2023-04-22T01:40:38.514Z,86.80
2023-04-22T01:41:10.895Z,85.70
2023-04-22T01:41:42.945Z,86.60
2023-04-22T01:42:15.933Z,86.40
2023-04-22T01:42:48.332Z,86.40
2023-04-22T01:43:21.216Z,86.30
2023-04-22T01:43:54.569Z,86.50
2023-04-22T01:44:26.984Z,86.40
2023-04-22T01:44:59.020Z,86.40
2023-04-22T01:45:31.653Z,87.30
2023-04-22T01:46:05.860Z,86.40
2023-04-22T01:46:37.996Z,86.40
2023-04-22T01:47:11.620Z,87.20
2023-04-22T01:47:44.443Z,86.50
2023-04-22T01:48:16.595Z,86.40
2023-04-22T01:48:51.500Z,88.80
2023-04-22T01:49:23.617Z,86.60
2023-04-22T01:49:56.260Z,88.30
2023-04-22T01:50:28.415Z,87.10
2023-04-22T01:51:00.466Z,86.90
2023-04-22T01:51:32.634Z,88.10
2023-04-22T01:52:04.662Z,86.70
2023-04-22T01:52:37.297Z,88.20
2023-04-22T01:53:09.939Z,86.00
2023-04-22T01:53:41.986Z,89.10
2023-04-22T01:54:14.500Z,88.20
2023-04-22T01:54:49.058Z,88.00
2023-04-22T01:55:21.265Z,86.60
2023-04-22T01:55:53.262Z,86.70
2023-04-22T01:56:25.323Z,86.70
2023-04-22T01:56:58.653Z,87.50
2023-04-22T01:57:30.713Z,88.70
2023-04-22T01:58:04.066Z,86.20
2023-04-22T01:58:36.106Z,86.70
2023-04-22T01:59:09.820Z,87.00
2023-04-22T01:59:43.037Z,88.70
2023-04-22T02:00:15.348Z,87.00
2023-04-22T02:00:52.910Z,86.90
2023-04-22T02:01:25.367Z,87.00
2023-04-22T02:01:57.580Z,87.00
2023-04-22T02:02:29.778Z,87.10
2023-04-22T02:03:02.645Z,87.10
2023-04-22T02:03:34.880Z,87.00
2023-04-22T02:04:06.948Z,84.80
2023-04-22T02:04:39.006Z,87.10
2023-04-22T02:05:11.212Z,87.90
2023-04-22T02:05:43.311Z,87.00
2023-04-22T02:06:15.225Z,86.70
2023-04-22T02:06:47.395Z,87.30
2023-04-22T02:07:19.432Z,88.80
2023-04-22T02:07:54.732Z,88.90
2023-04-22T02:08:26.756Z,87.30
2023-04-22T02:08:58.666Z,87.20
2023-04-22T02:09:30.584Z,88.40
2023-04-22T02:10:04.556Z,88.40
2023-04-22T02:10:36.606Z,86.80
2023-04-22T02:11:08.785Z,87.30
2023-04-22T02:11:40.794Z,87.30
2023-04-22T02:12:12.830Z,88.10
2023-04-22T02:12:45.831Z,88.20
2023-04-22T02:13:19.668Z,87.30
2023-04-22T02:13:53.026Z,87.40
2023-04-22T02:14:24.949Z,87.70
2023-04-22T02:14:57.108Z,85.20
2023-04-22T02:15:31.071Z,86.80
2023-04-22T02:16:03.762Z,87.30
2023-04-22T02:16:35.754Z,87.80
2023-04-22T02:17:07.912Z,88.20
2023-04-22T02:17:43.608Z,88.10
2023-04-22T02:18:18.105Z,88.20
2023-04-22T02:18:50.275Z,88.80
2023-04-22T02:19:22.191Z,88.30
2023-04-22T02:19:54.666Z,87.60
2023-04-22T02:20:27.843Z,88.70
2023-04-22T02:20:59.994Z,89.30
2023-04-22T02:21:35.036Z,89.00
2023-04-22T02:22:08.277Z,89.10
2023-04-22T02:22:43.193Z,87.10
2023-04-22T02:23:15.232Z,88.80
2023-04-22T02:23:48.352Z,89.10
2023-04-22T02:24:20.512Z,89.10
2023-04-22T02:24:52.616Z,87.60
2023-04-22T02:25:24.720Z,87.00
2023-04-22T02:25:57.021Z,87.80
2023-04-22T02:26:29.151Z,89.50
2023-04-22T02:27:01.433Z,87.70
2023-04-22T02:27:34.198Z,87.60
2023-04-22T02:28:06.234Z,89.90
2023-04-22T02:28:38.152Z,87.70
2023-04-22T02:29:10.086Z,90.10
2023-04-22T02:29:42.723Z,89.50
2023-04-22T02:30:15.001Z,88.70
2023-04-22T02:30:47.398Z,87.80
2023-04-22T02:31:20.323Z,87.20
2023-04-22T02:31:52.581Z,87.40
2023-04-22T02:32:24.935Z,87.90
2023-04-22T02:32:58.293Z,87.80
2023-04-22T02:33:30.479Z,88.90
2023-04-22T02:34:02.519Z,88.10
2023-04-22T02:34:34.676Z,89.70
2023-04-22T02:35:07.327Z,89.30
2023-04-22T02:35:39.246Z,87.90
2023-04-22T02:36:11.547Z,87.20
2023-04-22T02:36:43.559Z,89.40
2023-04-22T02:37:15.964Z,87.80
2023-04-22T02:37:48.001Z,87.80
2023-04-22T02:38:20.281Z,87.30
2023-04-22T02:38:52.195Z,87.80
2023-04-22T02:39:25.437Z,88.10
2023-04-22T02:39:57.489Z,88.90
2023-04-22T02:40:29.522Z,87.90
2023-04-22T02:41:01.441Z,89.10
2023-04-22T02:41:33.840Z,88.00
2023-04-22T02:42:06.029Z,87.90
2023-04-22T02:42:38.165Z,88.10
2023-04-22T02:43:10.209Z,88.70
2023-04-22T02:43:46.118Z,89.80
2023-04-22T02:44:18.613Z,88.00
2023-04-22T02:44:50.653Z,87.30
2023-04-22T02:45:24.367Z,88.10
2023-04-22T02:45:56.417Z,89.30
2023-04-22T02:46:29.095Z,88.60
2023-04-22T02:47:01.345Z,88.20
2023-04-22T02:47:33.672Z,88.50
2023-04-22T02:48:05.795Z,87.60
2023-04-22T02:48:37.922Z,90.00
2023-04-22T02:49:09.965Z,87.70
2023-04-22T02:49:42.302Z,87.70
2023-04-22T02:50:14.774Z,89.90
2023-04-22T02:50:46.812Z,88.40
2023-04-22T02:51:18.966Z,88.20
2023-04-22T02:51:51.006Z,88.30
2023-04-22T02:52:22.962Z,88.30
2023-04-22T02:52:55.091Z,88.30
2023-04-22T02:53:27.137Z,88.30
2023-04-22T02:54:00.273Z,87.80
2023-04-22T02:54:32.169Z,87.70
2023-04-22T02:55:05.170Z,89.40
2023-04-22T02:55:37.103Z,88.30
2023-04-22T02:56:09.253Z,88.30
2023-04-22T02:56:41.310Z,87.70
2023-04-22T02:57:13.210Z,88.40
2023-04-22T02:57:45.971Z,90.10
2023-04-22T02:58:18.260Z,88.30
2023-04-22T02:58:50.309Z,89.40
2023-04-22T02:59:22.447Z,87.80
2023-04-22T02:59:54.492Z,88.30
2023-04-22T03:00:28.811Z,89.10
2023-04-22T03:01:01.653Z,87.90
2023-04-22T03:01:33.823Z,88.20
2023-04-22T03:02:10.280Z,89.50
2023-04-22T03:02:54.612Z,87.70
2023-04-22T03:03:32.187Z,90.10
2023-04-22T03:04:04.522Z,88.30
2023-04-22T03:04:36.900Z,88.40
2023-04-22T03:05:10.220Z,88.40
2023-04-22T03:05:42.260Z,88.40
2023-04-22T03:06:14.544Z,90.40
2023-04-22T03:06:46.462Z,88.50
2023-04-22T03:07:18.742Z,87.80
2023-04-22T03:07:50.656Z,88.40
2023-04-22T03:08:22.693Z,87.90
2023-04-22T03:08:54.741Z,88.40
2023-04-22T03:09:26.780Z,88.70
2023-04-22T03:09:58.820Z,89.90
2023-04-22T03:10:30.901Z,90.20
2023-04-22T03:11:02.904Z,88.50
2023-04-22T03:11:34.940Z,88.10
2023-04-22T03:12:09.037Z,88.50
2023-04-22T03:12:41.904Z,89.90
2023-04-22T03:13:14.693Z,90.00
2023-04-22T03:13:47.176Z,90.20
2023-04-22T03:14:19.218Z,88.60
2023-04-22T03:14:51.264Z,90.10
2023-04-22T03:15:24.859Z,88.10
2023-04-22T03:15:57.259Z,90.20
2023-04-22T03:16:29.888Z,89.70
2023-04-22T03:17:03.846Z,88.70
2023-04-22T03:17:36.177Z,90.10
2023-04-22T03:18:12.738Z,89.60
2023-04-22T03:18:44.665Z,90.50
2023-04-22T03:19:16.702Z,88.60
2023-04-22T03:19:48.742Z,88.80
2023-04-22T03:20:21.626Z,88.10
2023-04-22T03:20:53.664Z,88.80
2023-04-22T03:21:25.830Z,90.30
2023-04-22T03:21:59.302Z,88.70
2023-04-22T03:22:31.596Z,88.70
2023-04-22T03:23:07.737Z,88.80
2023-04-22T03:24:13.113Z,88.20
2023-04-22T03:24:50.069Z,89.10
2023-04-22T03:25:22.237Z,89.60
2023-04-22T03:25:57.864Z,88.80
2023-04-22T03:27:02.311Z,88.30
2023-04-22T03:27:35.426Z,90.40
2023-04-22T03:28:07.586Z,90.10
2023-04-22T03:28:40.347Z,88.20
2023-04-22T03:29:12.753Z,88.70
2023-04-22T03:29:44.908Z,88.40
2023-04-22T03:30:17.074Z,88.70
2023-04-22T03:30:49.228Z,90.10
2023-04-22T03:31:21.395Z,89.00
2023-04-22T03:31:53.828Z,88.40
2023-04-22T03:32:26.188Z,88.20
2023-04-22T03:33:12.652Z,88.40
2023-04-22T03:33:49.110Z,88.90
2023-04-22T03:34:28.952Z,88.90
2023-04-22T03:35:01.255Z,88.90
2023-04-22T03:35:33.641Z,90.60
2023-04-22T03:36:07.953Z,88.70
2023-04-22T03:36:40.111Z,88.80
2023-04-22T03:37:12.036Z,88.90
2023-04-22T03:37:44.084Z,90.00
2023-04-22T03:38:18.876Z,89.00
2023-04-22T03:38:51.640Z,89.70
2023-04-22T03:39:24.644Z,89.30
2023-04-22T03:39:57.168Z,89.00
2023-04-22T03:40:29.194Z,90.10
2023-04-22T03:41:01.124Z,90.10
2023-04-22T03:41:43.116Z,90.00
2023-04-22T03:42:15.754Z,89.80
2023-04-22T03:42:49.001Z,88.50
2023-04-22T03:43:23.803Z,89.00
2023-04-22T03:44:04.726Z,89.00
2023-04-22T03:44:38.932Z,89.90
2023-04-22T03:45:11.316Z,88.90
2023-04-22T03:45:49.151Z,89.00
2023-04-22T03:46:25.999Z,89.10
2023-04-22T03:47:20.477Z,89.10
2023-04-22T03:47:58.046Z,89.50
2023-04-22T03:48:38.722Z,88.50
2023-04-22T03:49:15.759Z,89.30
2023-04-22T03:49:49.121Z,89.20
2023-04-22T03:50:21.174Z,90.40
2023-04-22T03:50:55.250Z,89.10
2023-04-22T03:51:29.081Z,91.00
2023-04-22T03:52:02.920Z,90.40
2023-04-22T03:52:35.679Z,89.10
2023-04-22T03:53:07.965Z,89.60
2023-04-22T03:53:40.242Z,89.20
2023-04-22T03:54:13.599Z,90.20
2023-04-22T03:54:51.760Z,89.70
2023-04-22T03:55:23.921Z,90.00
2023-04-22T03:55:58.006Z,89.10
2023-04-22T03:56:29.932Z,90.00
2023-04-22T03:57:05.205Z,90.40
2023-04-22T03:57:37.483Z,90.50
2023-04-22T03:58:09.765Z,89.10
2023-04-22T03:58:41.806Z,89.10
2023-04-22T03:59:14.325Z,89.50
2023-04-22T03:59:46.607Z,89.20
2023-04-22T04:00:18.902Z,89.30
2023-04-22T04:00:56.804Z,89.60
2023-04-22T04:01:29.090Z,88.00
2023-04-22T04:02:05.258Z,89.50
2023-04-22T04:02:37.522Z,90.40
2023-04-22T04:03:10.043Z,89.00
2023-04-22T04:03:42.584Z,89.20
2023-04-22T04:04:16.330Z,89.50
2023-04-22T04:04:57.260Z,88.60
2023-04-22T04:05:29.801Z,88.60
2023-04-22T04:06:02.252Z,89.30
2023-04-22T04:06:34.247Z,90.40
2023-04-22T04:07:07.884Z,90.70
2023-04-22T04:07:40.500Z,89.10
2023-04-22T04:08:12.528Z,89.20
2023-04-22T04:08:44.935Z,89.20
2023-04-22T04:09:16.971Z,90.40
2023-04-22T04:09:49.011Z,88.70
2023-04-22T04:10:21.298Z,89.10
2023-04-22T04:10:54.296Z,89.20
2023-04-22T04:11:26.328Z,89.20
2023-04-22T04:11:58.860Z,89.80
2023-04-22T04:12:35.455Z,90.20
2023-04-22T04:13:07.619Z,89.60
2023-04-22T04:13:53.331Z,89.20
2023-04-22T04:14:30.526Z,90.70
2023-04-22T04:15:03.295Z,89.20
2023-04-22T04:15:36.948Z,89.30
2023-04-22T04:16:10.052Z,90.30
2023-04-22T04:16:44.813Z,89.80
2023-04-22T04:17:25.865Z,90.00
2023-04-22T04:18:01.248Z,90.20
2023-04-22T04:19:07.988Z,88.60
2023-04-22T04:19:42.641Z,89.40
2023-04-22T04:20:16.253Z,89.20
2023-04-22T04:20:48.415Z,89.80
2023-04-22T04:21:20.576Z,90.40
2023-04-22T04:21:55.733Z,89.20
2023-04-22T04:22:29.363Z,89.50
2023-04-22T04:23:04.862Z,89.20
2023-04-22T04:23:37.975Z,89.30
2023-04-22T04:24:10.254Z,89.30
2023-04-22T04:24:48.066Z,88.60
2023-04-22T04:25:25.256Z,89.30
2023-04-22T04:25:58.257Z,89.60
2023-04-22T04:26:30.777Z,89.30
2023-04-22T04:27:12.065Z,89.40
2023-04-22T04:27:51.919Z,90.70
2023-04-22T04:28:24.331Z,88.70
2023-04-22T04:28:56.228Z,89.30
2023-04-22T04:29:28.264Z,90.30
2023-04-22T04:30:10.139Z,89.70
2023-04-22T04:30:47.215Z,90.00
2023-04-22T04:31:19.432Z,88.80
2023-04-22T04:31:51.969Z,89.40
2023-04-22T04:32:25.195Z,89.40
2023-04-22T04:32:57.963Z,89.50
2023-04-22T04:33:32.680Z,89.50
2023-04-22T04:34:05.945Z,89.30
2023-04-22T04:34:38.099Z,89.40
2023-04-22T04:35:15.189Z,89.30
2023-04-22T04:35:52.740Z,89.30
2023-04-22T04:36:29.149Z,88.80
2023-04-22T04:37:07.395Z,88.90
2023-04-22T04:37:57.664Z,88.80
2023-04-22T04:38:29.822Z,89.40
2023-04-22T04:39:02.941Z,89.50
2023-04-22T04:39:35.218Z,90.10
2023-04-22T04:40:08.713Z,89.50
2023-04-22T04:40:53.865Z,89.40
2023-04-22T04:41:29.701Z,90.40
2023-04-22T04:42:01.867Z,89.30
2023-04-22T04:42:37.511Z,89.30
2023-04-22T04:43:14.373Z,90.60
2023-04-22T04:43:52.507Z,89.40
2023-04-22T04:44:36.780Z,89.50
2023-04-22T04:45:09.908Z,90.30
2023-04-22T04:45:48.314Z,89.50
2023-04-22T04:46:22.742Z,89.90
2023-04-22T04:46:55.074Z,89.40
2023-04-22T04:47:28.539Z,89.50
2023-04-22T04:48:08.151Z,89.50
2023-04-22T04:48:44.005Z,88.90
2023-04-22T04:49:16.030Z,88.90
2023-04-22T04:49:58.643Z,90.70
2023-04-22T04:50:31.508Z,89.50
2023-04-22T04:51:07.890Z,89.30
2023-04-22T04:51:44.471Z,89.30
2023-04-22T04:52:16.628Z,90.20
2023-04-22T04:52:49.148Z,89.40
2023-04-22T04:53:23.605Z,89.40
2023-04-22T04:53:55.865Z,89.40
2023-04-22T04:54:29.714Z,89.40
2023-04-22T04:55:02.235Z,89.30
2023-04-22T04:55:35.827Z,90.40
2023-04-22T04:56:12.914Z,89.40
2023-04-22T04:56:45.074Z,90.80
2023-04-22T04:57:17.231Z,90.10
2023-04-22T04:57:49.271Z,89.40
2023-04-22T04:58:21.313Z,90.20
2023-04-22T04:58:59.730Z,90.10
2023-04-22T04:59:33.191Z,90.10
2023-04-22T05:00:06.549Z,90.80
2023-04-22T05:00:38.470Z,89.30
2023-04-22T05:01:10.680Z,90.60
2023-04-22T05:01:42.839Z,89.40
2023-04-22T05:02:17.478Z,89.70
2023-04-22T05:02:49.903Z,89.40
2023-04-22T05:03:22.187Z,90.30
2023-04-22T05:03:54.644Z,89.40
2023-04-22T05:04:27.163Z,89.40
2023-04-22T05:04:59.656Z,89.50
2023-04-22T05:05:32.365Z,89.80
2023-04-22T05:06:05.116Z,89.30
2023-04-22T05:06:37.519Z,89.40
2023-04-22T05:07:10.280Z,90.20
2023-04-22T05:07:44.241Z,90.70
2023-04-22T05:08:18.077Z,89.50
2023-04-22T05:08:52.287Z,88.80
2023-04-22T05:09:26.238Z,89.40
2023-04-22T05:09:58.880Z,90.50
2023-04-22T05:10:31.997Z,90.10
2023-04-22T05:11:03.931Z,88.90
2023-04-22T05:11:36.235Z,89.40
2023-04-22T05:12:15.343Z,90.20
2023-04-22T05:12:51.280Z,89.40
2023-04-22T05:13:27.696Z,89.60
2023-04-22T05:14:01.041Z,89.50
2023-04-22T05:14:38.383Z,90.80
2023-04-22T05:15:11.003Z,90.10
2023-04-22T05:15:43.768Z,89.40
2023-04-22T05:16:16.074Z,89.50
2023-04-22T05:16:48.515Z,89.40
2023-04-22T05:17:21.352Z,90.60
2023-04-22T05:17:54.634Z,89.30
2023-04-22T05:18:26.726Z,89.40
2023-04-22T05:18:59.848Z,90.20
2023-04-22T05:19:32.124Z,89.50
2023-04-22T05:20:04.885Z,89.40
2023-04-22T05:20:36.940Z,89.40
2023-04-22T05:21:09.697Z,90.20
2023-04-22T05:21:41.858Z,89.40
2023-04-22T05:22:14.006Z,89.50
2023-04-22T05:22:46.175Z,90.80
2023-04-22T05:23:19.292Z,89.50
2023-04-22T05:23:52.049Z,89.70
2023-04-22T05:24:25.182Z,89.50
2023-04-22T05:24:57.568Z,89.40
2023-04-22T05:25:29.849Z,90.70
2023-04-22T05:26:08.373Z,89.50
2023-04-22T05:26:44.388Z,89.40
2023-04-22T05:27:21.212Z,90.80
2023-04-22T05:27:53.372Z,88.80
2023-04-22T05:28:25.780Z,89.60
2023-04-22T05:29:01.420Z,90.10
2023-04-22T05:29:33.574Z,89.40
2023-04-22T05:30:08.180Z,88.90
2023-04-22T05:30:40.309Z,89.30
2023-04-22T05:31:12.219Z,88.90
2023-04-22T05:31:44.401Z,90.70
2023-04-22T05:32:16.844Z,90.50
2023-04-22T05:32:48.851Z,89.60
2023-04-22T05:33:20.851Z,88.90
2023-04-22T05:33:52.785Z,88.80
2023-04-22T05:34:25.540Z,89.80
2023-04-22T05:34:59.139Z,88.80
2023-04-22T05:35:31.181Z,89.50
2023-04-22T05:36:03.745Z,90.60
2023-04-22T05:36:36.215Z,89.40
2023-04-22T05:37:09.695Z,89.50
2023-04-22T05:37:43.322Z,89.40
2023-04-22T05:38:48.336Z,88.40
2023-04-22T05:39:20.858Z,90.70
2023-04-22T05:39:53.976Z,89.40
2023-04-22T05:40:26.387Z,89.60
2023-04-22T05:40:58.296Z,90.20
2023-04-22T05:41:30.821Z,90.20
2023-04-22T05:42:04.295Z,89.50
2023-04-22T05:42:36.216Z,89.50
2023-04-22T05:43:09.106Z,89.50
2023-04-22T05:43:43.303Z,88.80
2023-04-22T05:44:20.859Z,89.50
2023-04-22T05:44:53.138Z,90.80
2023-04-22T05:45:25.420Z,89.50
2023-04-22T05:45:57.653Z,90.40
2023-04-22T05:46:29.956Z,89.50
2023-04-22T05:47:02.139Z,89.40
2023-04-22T05:47:34.236Z,88.90
2023-04-22T05:48:06.514Z,88.90
2023-04-22T05:48:43.541Z,89.40
2023-04-22T05:49:29.021Z,90.40
2023-04-22T05:50:21.198Z,89.50
2023-04-22T05:51:09.821Z,90.10
2023-04-22T05:51:42.702Z,89.50
2023-04-22T05:52:18.836Z,89.50
2023-04-22T05:53:05.523Z,89.90
2023-04-22T05:53:37.663Z,90.40
2023-04-22T05:54:10.664Z,89.50
2023-04-22T05:54:42.587Z,89.60
2023-04-22T05:55:14.743Z,88.80
2023-04-22T05:55:47.027Z,89.40
2023-04-22T05:56:21.118Z,88.90
2023-04-22T05:57:26.264Z,89.00
2023-04-22T05:57:58.548Z,89.50
2023-04-22T05:58:50.866Z,90.40
2023-04-22T05:59:26.879Z,90.60
2023-04-22T06:00:00.840Z,90.60
2023-04-22T06:00:32.988Z,89.30
2023-04-22T06:01:18.979Z,89.50
2023-04-22T06:02:12.534Z,89.50
2023-04-22T06:02:46.367Z,88.90
2023-04-22T06:03:18.488Z,89.60
2023-04-22T06:03:51.638Z,88.80
2023-04-22T06:04:24.120Z,89.40
2023-04-22T06:04:56.783Z,89.50
2023-04-22T06:05:29.405Z,89.00
2023-04-22T06:06:02.948Z,89.50
2023-04-22T06:06:35.271Z,88.90
2023-04-22T06:07:40.451Z,89.10
2023-04-22T06:08:12.604Z,89.50
2023-04-22T06:08:44.634Z,89.50
2023-04-22T06:09:16.795Z,89.50
2023-04-22T06:09:48.839Z,90.00
2023-04-22T06:10:20.994Z,90.70
2023-04-22T06:10:53.280Z,89.60
2023-04-22T06:11:26.636Z,89.60
2023-04-22T06:11:58.912Z,89.00
2023-04-22T06:12:31.208Z,90.00
2023-04-22T06:13:03.724Z,89.40
2023-04-22T06:13:35.633Z,89.50
2023-04-22T06:14:07.807Z,89.50
2023-04-22T06:14:40.193Z,89.40
2023-04-22T06:15:12.481Z,89.50
2023-04-22T06:15:44.701Z,89.60
2023-04-22T06:16:16.804Z,89.40
2023-04-22T06:16:50.512Z,89.50
2023-04-22T06:17:22.707Z,89.90
2023-04-22T06:17:55.002Z,89.40
2023-04-22T06:18:28.119Z,89.50
2023-04-22T06:19:00.965Z,89.50
2023-04-22T06:19:33.235Z,89.50
2023-04-22T06:20:06.724Z,88.90
2023-04-22T06:20:39.599Z,88.90
2023-04-22T06:21:12.002Z,88.90
2023-04-22T06:21:44.887Z,89.40
2023-04-22T06:22:17.047Z,90.10
2023-04-22T06:22:48.959Z,89.60
2023-04-22T06:23:20.997Z,89.40
2023-04-22T06:23:53.040Z,88.90
2023-04-22T06:25:00.251Z,88.90
2023-04-22T06:25:35.758Z,89.50
2023-04-22T06:26:07.810Z,89.50
2023-04-22T06:26:41.521Z,89.50
2023-04-22T06:27:13.678Z,90.30
2023-04-22T06:27:45.612Z,88.90
2023-04-22T06:28:18.958Z,90.80
2023-04-22T06:28:53.163Z,90.50
2023-04-22T06:29:25.948Z,89.40
2023-04-22T06:29:58.926Z,90.50
2023-04-22T06:30:30.836Z,89.40
2023-04-22T06:31:02.797Z,90.00
2023-04-22T06:31:35.672Z,89.80
2023-04-22T06:32:07.926Z,88.90
2023-04-22T06:33:13.170Z,88.90
2023-04-22T06:33:46.324Z,88.90
2023-04-22T06:34:18.483Z,89.30
2023-04-22T06:34:50.520Z,90.30
2023-04-22T06:35:22.923Z,89.40
2023-04-22T06:35:55.202Z,88.80
2023-04-22T06:36:30.910Z,89.50
2023-04-22T06:37:06.738Z,90.00
2023-04-22T06:37:38.768Z,90.50
2023-04-22T06:38:13.214Z,88.80
2023-04-22T06:39:05.883Z,89.50
2023-04-22T06:39:41.162Z,90.50
2023-04-22T06:40:45.850Z,90.30
2023-04-22T06:41:27.607Z,88.90
2023-04-22T06:42:04.326Z,89.50
2023-04-22T06:42:56.535Z,89.40
2023-04-22T06:43:53.673Z,89.50
2023-04-22T06:44:44.443Z,90.60
2023-04-22T06:45:26.419Z,89.50
2023-04-22T06:46:13.577Z,89.40
2023-04-22T06:47:06.049Z,88.80
2023-04-22T06:47:47.601Z,90.80
2023-04-22T06:48:22.210Z,89.50
2023-04-22T06:49:12.858Z,90.10
2023-04-22T06:50:03.373Z,90.10
2023-04-22T06:50:41.049Z,89.50
2023-04-22T06:51:13.450Z,89.50
2023-04-22T06:51:45.856Z,89.60
2023-04-22T06:52:18.400Z,89.50
2023-04-22T06:52:50.412Z,89.80
2023-04-22T06:53:22.934Z,89.70
2023-04-22T06:53:54.859Z,90.10
2023-04-22T06:54:26.893Z,89.20
2023-04-22T06:54:58.943Z,89.20
2023-04-22T06:55:30.985Z,90.50
2023-04-22T06:56:03.268Z,89.80
2023-04-22T06:56:36.224Z,89.70
2023-04-22T06:57:08.302Z,89.70
2023-04-22T06:57:40.342Z,89.20
2023-04-22T06:58:12.258Z,89.70
2023-04-22T06:58:44.296Z,90.30
2023-04-22T06:59:16.342Z,89.20
2023-04-22T06:59:48.402Z,89.20
2023-04-22T07:00:21.019Z,89.70
2023-04-22T07:00:53.054Z,89.70
2023-04-22T07:01:25.143Z,89.10
2023-04-22T07:01:57.306Z,89.70
2023-04-22T07:02:29.539Z,89.60
2023-04-22T07:03:01.778Z,89.70
2023-04-22T07:03:34.855Z,89.80
2023-04-22T07:04:11.560Z,90.20
2023-04-22T07:04:44.485Z,90.00
2023-04-22T07:05:17.176Z,89.80
2023-04-22T07:05:50.294Z,90.00
2023-04-22T07:06:22.336Z,89.70
2023-04-22T07:06:54.507Z,89.90
2023-04-22T07:07:26.664Z,89.70
2023-04-22T07:07:58.577Z,89.80
2023-04-22T07:08:31.228Z,89.30
2023-04-22T07:09:03.862Z,89.80
2023-04-22T07:09:36.358Z,90.10
2023-04-22T07:10:09.022Z,90.30
2023-04-22T07:10:48.260Z,89.80
2023-04-22T07:11:39.098Z,89.80
2023-04-22T07:12:30.145Z,89.90
2023-04-22T07:13:02.065Z,89.20
2023-04-22T07:13:34.277Z,89.30
2023-04-22T07:14:06.261Z,89.70
2023-04-22T07:14:38.303Z,90.80
2023-04-22T07:15:10.711Z,89.30
2023-04-22T07:15:42.860Z,89.90
2023-04-22T07:16:14.941Z,89.80
2023-04-22T07:16:47.321Z,89.80
2023-04-22T07:17:22.323Z,89.70
2023-04-22T07:17:54.621Z,90.10